Главная страница
METAR-TAF:

METAR-TAF

Аэропорты :

Крайова, Румыния

широта: 44-14N, долгота: 023-52E, высота над уровнем моря: 192 м

Текущие метеонаблюдения

Эта сводка был подготовлена 28 минут назад, в 23:30 UTC
Ветер 2 Узел от северно-северо-западный
Температура 7°C
Влажность 87%
Давление 1022 hPa
Видимость: 5000 м
дымка

METAR: LRCV 222330Z 34002KT 5000 BR NSC 07/05 Q1022

Время: 02:58 (23:58 UTC)

Прогноз

Эта сводка был подготовлена 58 минут назад, в 23:00 UTC
Прогноз действительный с 23-го 00 UTC до 23-го 09 UTC
Ветер 4 Узел переменных направлений
Видимость: 5000 м
дымка
временами
С 23-го 00 UTC до 23-го 05 UTC
Видимость: 1500 м
дымка
изменения
С 23-го 07 UTC до 23-го 09 UTC
Ветер 10 Узел от западный

TAF: LRCV 222300Z 2300/2309 VRB04KT 5000 BR NSC TEMPO 2300/2305 1500 BR BECMG 2307/2309 26010KT

Метеонаблюдения и прогнозы для более 4000 аэропортов (сводки METAR и TAF).

Имеющиеся станции представлены на карте желтыми и красными точками.

Чтобы увидеть название станции, наведите на нее мышь.

Затем щелкните, чтобы увидеть метеонаблюдения и метеопрогнозы.

Управление картой: чтобы увеличить масштаб, щелкните зеленые кнопки с черным крестиком; чтобы уменьшить масштаб, щелкните зеленую кнопку с тире; для просмотра соседних карт щелкайте зеленые стрелки.


METAR-TAF: